Terminal Aerodrome Forecast
Issued by NWS

Home | Current Version | Previous Version | Text Only | Print | Product List | Glossary On
Versions: 1 2 3 4 5 6 7 8 9 10 11 12 13 14 15 16 17 18 19 20 21 22 23 24 25 26 27 28 29 30 31 32 33 34
000
FTUS44 KLIX 041100
TAFHDC
TAF
KHDC 041122Z 0412/0512 17005KT 2SM BR OVC002
     FM041500 18008KT P6SM BKN020
     FM041700 19010KT P6SM SCT020
     FM050600 20006KT 5SM RA BKN008
     FM051000 30010KT 5SM RA BKN008=

USA.gov is the U.S. government's official web portal to all federal, state and local government web resources and services.